Time;durP1;ratioP1;P1;durP2;ratioP2;P2;SDS_P1;SDS_P2;PMS_P1;PMS_P2;Temp;Humidity;BMP_temperature;BMP_pressure;BME280_temperature;BME280_humidity;BME280_pressure;Samples;Min_cycle;Max_cycle;Signal;HPM_P1;HPM_P2
2022/12/28 00:02:21;;;;;;;2.67;1.92;;;;;;;;;;5096601;28;20648;-58
2022/12/28 00:04:48;;;;;;;2.13;1.92;;;;;;;;;;5096557;28;20203;-58
2022/12/28 00:07:16;;;;;;;2.20;2.00;;;;;;;;;;5097336;28;20531;-58
2022/12/28 00:09:45;;;;;;;2.30;2.10;;;;;;;;;;5096793;28;20580;-58
2022/12/28 00:12:13;;;;;;;2.17;1.90;;;;;;;;;;5096909;28;20231;-58
2022/12/28 00:14:41;;;;;;;2.08;1.90;;;;;;;;;;5096817;28;20298;-58
2022/12/28 00:17:08;;;;;;;2.28;2.00;;;;;;;;;;5096104;28;20302;-58
2022/12/28 00:19:36;;;;;;;1.77;1.67;;;;;;;;;;5096550;28;20224;-58
2022/12/28 00:22:04;;;;;;;2.00;1.90;;;;;;;;;;5096565;28;20204;-58
2022/12/28 00:24:31;;;;;;;2.00;1.80;;;;;;;;;;5097170;28;20203;-58
2022/12/28 00:27:00;;;;;;;1.90;1.70;;;;;;;;;;5097093;28;20298;-58
2022/12/28 00:29:28;;;;;;;1.75;1.65;;;;;;;;;;5097305;28;20231;-58
2022/12/28 00:31:56;;;;;;;2.10;1.88;;;;;;;;;;5097056;28;20618;-58
2022/12/28 00:34:24;;;;;;;2.17;1.98;;;;;;;;;;5098989;28;20269;-58
2022/12/28 00:36:52;;;;;;;1.98;1.60;;;;;;;;;;5100527;28;20203;-58
2022/12/28 00:39:19;;;;;;;2.25;1.70;;;;;;;;;;5100484;28;20555;-59
2022/12/28 00:41:47;;;;;;;1.95;1.85;;;;;;;;;;5100965;28;20230;-59
2022/12/28 00:44:16;;;;;;;1.65;1.55;;;;;;;;;;5100114;28;20239;-59
2022/12/28 00:46:44;;;;;;;1.67;1.58;;;;;;;;;;5100485;28;20297;-59
2022/12/28 00:49:12;;;;;;;1.55;1.45;;;;;;;;;;5100590;28;20203;-59
2022/12/28 00:51:40;;;;;;;1.52;1.42;;;;;;;;;;5100371;28;20302;-59
2022/12/28 00:54:08;;;;;;;1.88;1.77;;;;;;;;;;5100466;28;20204;-58
2022/12/28 00:56:35;;;;;;;1.88;1.65;;;;;;;;;;5100441;28;20285;-58
2022/12/28 00:59:03;;;;;;;1.85;1.75;;;;;;;;;;5100223;28;20203;-59
2022/12/28 01:01:32;;;;;;;1.60;1.50;;;;;;;;;;5100455;28;20310;-59
2022/12/28 01:04:00;;;;;;;1.52;1.40;;;;;;;;;;5099486;28;20212;-59
2022/12/28 01:06:29;;;;;;;1.50;1.40;;;;;;;;;;5099786;28;20204;-59
2022/12/28 01:08:56;;;;;;;2.03;1.60;;;;;;;;;;5100068;28;20203;-59
2022/12/28 01:11:25;;;;;;;1.75;1.40;;;;;;;;;;5100075;28;20199;-59
2022/12/28 01:13:54;;;;;;;1.73;1.20;;;;;;;;;;5099691;28;20575;-59
2022/12/28 01:16:23;;;;;;;1.70;1.50;;;;;;;;;;5099900;28;20222;-59
2022/12/28 01:18:52;;;;;;;1.77;1.52;;;;;;;;;;5099791;28;20643;-59
2022/12/28 01:21:21;;;;;;;1.30;1.20;;;;;;;;;;5099612;28;20614;-59
2022/12/28 01:23:49;;;;;;;1.33;1.23;;;;;;;;;;5099353;28;20204;-59
2022/12/28 01:26:17;;;;;;;1.33;1.23;;;;;;;;;;5099218;28;20210;-59
2022/12/28 01:28:45;;;;;;;1.98;1.60;;;;;;;;;;5099716;28;20296;-59
2022/12/28 01:31:13;;;;;;;1.52;1.25;;;;;;;;;;5099626;28;20614;-59
2022/12/28 01:33:41;;;;;;;1.40;1.27;;;;;;;;;;5099656;28;20219;-59
2022/12/28 01:36:12;;;;;;;1.30;1.20;;;;;;;;;;5100085;28;20203;-59
2022/12/28 01:38:40;;;;;;;1.25;1.15;;;;;;;;;;5099906;28;20204;-58
2022/12/28 01:41:08;;;;;;;1.20;1.10;;;;;;;;;;5099845;28;20239;-58
2022/12/28 01:43:40;;;;;;;1.30;1.20;;;;;;;;;;5099293;28;20246;-58
2022/12/28 01:46:09;;;;;;;1.13;1.02;;;;;;;;;;5098801;28;20265;-58
2022/12/28 01:48:37;;;;;;;1.23;1.10;;;;;;;;;;5100015;28;20310;-58
2022/12/28 01:51:05;;;;;;;1.17;1.10;;;;;;;;;;5099622;28;20199;-58
2022/12/28 01:53:34;;;;;;;1.40;1.30;;;;;;;;;;5099445;28;20214;-58
2022/12/28 01:56:02;;;;;;;1.42;1.33;;;;;;;;;;5099246;28;20357;-58
2022/12/28 01:58:32;;;;;;;1.33;1.23;;;;;;;;;;5099188;28;20203;-58
2022/12/28 02:01:00;;;;;;;1.13;1.02;;;;;;;;;;5099207;28;20266;-58
2022/12/28 02:03:29;;;;;;;1.20;1.10;;;;;;;;;;5098888;28;20203;-58
2022/12/28 02:05:58;;;;;;;1.15;1.05;;;;;;;;;;5099042;28;20204;-58
2022/12/28 02:08:29;;;;;;;1.33;1.10;;;;;;;;;;5099235;28;20208;-58
2022/12/28 02:10:58;;;;;;;1.30;1.20;;;;;;;;;;5099160;28;20583;-58
2022/12/28 02:13:27;;;;;;;1.45;1.17;;;;;;;;;;5098653;28;20303;-58
2022/12/28 02:15:54;;;;;;;1.67;1.00;;;;;;;;;;5098896;28;20249;-59
2022/12/28 02:18:24;;;;;;;1.35;1.10;;;;;;;;;;5098842;28;20207;-59
2022/12/28 02:21:05;;;;;;;1.17;1.08;;;;;;;;;;5099060;28;20494;-59
2022/12/28 02:23:39;;;;;;;1.58;1.23;;;;;;;;;;5098648;28;20498;-59
2022/12/28 02:26:21;;;;;;;1.15;1.05;;;;;;;;;;5098641;28;20268;-59
2022/12/28 02:28:59;;;;;;;1.23;1.10;;;;;;;;;;5098922;28;20203;-59
2022/12/28 02:31:30;;;;;;;1.05;1.00;;;;;;;;;;5099004;28;20213;-59
2022/12/28 02:34:02;;;;;;;1.20;1.10;;;;;;;;;;5099083;28;20215;-59
2022/12/28 02:36:33;;;;;;;1.17;1.00;;;;;;;;;;5098332;28;20203;-59
2022/12/28 02:39:04;;;;;;;1.05;0.95;;;;;;;;;;5098257;28;20215;-58
2022/12/28 02:41:33;;;;;;;1.08;0.95;;;;;;;;;;5098603;28;20232;-58
2022/12/28 02:44:02;;;;;;;1.20;1.10;;;;;;;;;;5098065;28;20293;-58
2022/12/28 02:52:09;;;;;;;0.85;0.85;;;;;;;;;;5098244;28;20209;-58
2022/12/28 02:57:45;;;;;;;1.20;1.10;;;;;;;;;;5097685;28;20194;-58
2022/12/28 03:00:16;;;;;;;1.30;1.13;;;;;;;;;;5098150;28;20242;-58
2022/12/28 03:02:50;;;;;;;1.20;1.10;;;;;;;;;;5098233;28;20576;-58
2022/12/28 03:08:13;;;;;;;1.20;1.10;;;;;;;;;;5098113;28;20638;-58
2022/12/28 03:08:18;;;;;;;1.30;1.20;;;;;;;;;;5098035;28;20207;-58
2022/12/28 03:10:49;;;;;;;1.10;1.00;;;;;;;;;;5098320;28;20246;-58
2022/12/28 03:16:06;;;;;;;1.02;0.90;;;;;;;;;;5097688;28;20202;-59
2022/12/28 03:32:28;;;;;;;0.90;0.90;;;;;;;;;;5097645;28;20621;-59
2022/12/28 03:34:56;;;;;;;0.80;0.80;;;;;;;;;;5097720;28;20203;-58
2022/12/28 03:37:26;;;;;;;1.10;1.00;;;;;;;;;;5097780;28;20208;-58
2022/12/28 03:39:56;;;;;;;0.70;0.70;;;;;;;;;;5097381;28;20257;-58
2022/12/28 03:45:17;;;;;;;0.80;0.80;;;;;;;;;;5097268;28;20234;-58
2022/12/28 03:47:48;;;;;;;0.95;0.90;;;;;;;;;;5097763;28;20247;-58
2022/12/28 03:50:16;;;;;;;1.17;1.08;;;;;;;;;;5097611;28;20214;-59
2022/12/28 03:52:44;;;;;;;1.02;1.00;;;;;;;;;;5097473;28;20575;-59
2022/12/28 03:55:12;;;;;;;1.30;0.90;;;;;;;;;;5097183;28;20257;-59
2022/12/28 03:57:40;;;;;;;1.02;0.93;;;;;;;;;;5096750;28;20203;-58
2022/12/28 04:00:09;;;;;;;0.93;0.80;;;;;;;;;;5097051;28;20226;-58
2022/12/28 04:02:38;;;;;;;1.10;0.73;;;;;;;;;;5097211;28;20203;-58
2022/12/28 04:05:07;;;;;;;0.75;0.75;;;;;;;;;;5097331;28;20254;-58
2022/12/28 04:07:35;;;;;;;1.10;1.00;;;;;;;;;;5097136;28;20217;-58
2022/12/28 04:10:03;;;;;;;0.80;0.80;;;;;;;;;;5100613;28;20219;-58
2022/12/28 04:12:30;;;;;;;0.90;0.80;;;;;;;;;;5101195;28;20293;-58
2022/12/28 04:14:58;;;;;;;0.90;0.88;;;;;;;;;;5101042;28;20204;-59
2022/12/28 04:17:26;;;;;;;0.90;0.85;;;;;;;;;;5100861;28;20298;-59
2022/12/28 04:19:54;;;;;;;1.08;0.75;;;;;;;;;;5100991;28;20211;-59
2022/12/28 04:22:23;;;;;;;0.85;0.70;;;;;;;;;;5100942;28;20284;-58
2022/12/28 04:24:51;;;;;;;0.80;0.80;;;;;;;;;;5100994;28;20287;-58
2022/12/28 04:27:19;;;;;;;0.82;0.82;;;;;;;;;;5100401;28;20215;-58
2022/12/28 04:29:47;;;;;;;0.70;0.70;;;;;;;;;;5100450;28;20238;-58
2022/12/28 04:32:14;;;;;;;0.80;0.80;;;;;;;;;;5100390;28;20659;-58
2022/12/28 04:34:42;;;;;;;0.70;0.70;;;;;;;;;;5100643;28;20575;-58
2022/12/28 04:37:10;;;;;;;0.85;0.85;;;;;;;;;;5100891;28;20214;-58
2022/12/28 04:39:39;;;;;;;0.80;0.70;;;;;;;;;;5100510;28;20203;-58
2022/12/28 04:42:06;;;;;;;0.73;0.70;;;;;;;;;;5100418;28;20288;-59
2022/12/28 04:44:34;;;;;;;0.73;0.73;;;;;;;;;;5100095;28;20232;-59
2022/12/28 04:47:02;;;;;;;0.75;0.75;;;;;;;;;;5100636;28;20203;-59
2022/12/28 04:49:30;;;;;;;0.88;0.85;;;;;;;;;;5100751;28;20333;-58
2022/12/28 04:51:57;;;;;;;0.85;0.77;;;;;;;;;;5100690;28;20242;-58
2022/12/28 04:54:25;;;;;;;0.80;0.70;;;;;;;;;;5100718;28;20571;-58
2022/12/28 04:56:54;;;;;;;0.77;0.77;;;;;;;;;;5100139;28;20235;-58
2022/12/28 04:59:22;;;;;;;0.80;0.80;;;;;;;;;;5100133;28;20506;-58
2022/12/28 05:01:50;;;;;;;0.50;0.50;;;;;;;;;;5100146;28;20246;-58
2022/12/28 05:04:17;;;;;;;0.80;0.80;;;;;;;;;;5100061;28;20215;-58
2022/12/28 05:06:44;;;;;;;0.95;0.82;;;;;;;;;;5099952;28;20214;-58
2022/12/28 05:09:12;;;;;;;0.70;0.70;;;;;;;;;;5100433;28;20302;-58
2022/12/28 05:11:39;;;;;;;0.95;0.85;;;;;;;;;;5100781;28;20588;-58
2022/12/28 05:14:08;;;;;;;1.15;0.85;;;;;;;;;;5100211;28;20233;-58
2022/12/28 05:16:36;;;;;;;0.68;0.68;;;;;;;;;;5099994;28;20294;-58
2022/12/28 05:19:03;;;;;;;0.80;0.80;;;;;;;;;;5100088;28;20290;-58
2022/12/28 05:21:30;;;;;;;1.08;0.80;;;;;;;;;;5099939;28;20588;-59
2022/12/28 05:23:58;;;;;;;0.50;0.50;;;;;;;;;;5099847;28;20286;-59
2022/12/28 05:26:27;;;;;;;0.82;0.80;;;;;;;;;;5099911;28;20485;-58
2022/12/28 05:28:55;;;;;;;0.80;0.60;;;;;;;;;;5099628;28;20265;-58
2022/12/28 05:31:24;;;;;;;0.60;0.60;;;;;;;;;;5099822;28;20207;-58
2022/12/28 05:33:52;;;;;;;0.60;0.60;;;;;;;;;;5099443;28;20214;-58
2022/12/28 05:36:20;;;;;;;0.80;0.80;;;;;;;;;;5099101;28;20207;-59
2022/12/28 05:38:48;;;;;;;0.70;0.70;;;;;;;;;;5099336;28;20282;-58
2022/12/28 05:41:17;;;;;;;1.02;0.80;;;;;;;;;;5099127;28;20238;-58
2022/12/28 05:43:45;;;;;;;0.70;0.70;;;;;;;;;;5099094;28;20244;-58
2022/12/28 05:46:13;;;;;;;0.60;0.60;;;;;;;;;;5098047;28;20294;-58
2022/12/28 05:48:42;;;;;;;0.95;0.60;;;;;;;;;;5099036;28;20299;-58
2022/12/28 05:51:11;;;;;;;0.95;0.70;;;;;;;;;;5099719;28;20298;-58
2022/12/28 05:53:39;;;;;;;0.85;0.70;;;;;;;;;;5099841;28;20294;-58
2022/12/28 05:56:07;;;;;;;0.70;0.70;;;;;;;;;;5099105;28;20294;-58
2022/12/28 05:58:35;;;;;;;1.23;0.68;;;;;;;;;;5099452;28;20294;-58
2022/12/28 06:01:06;;;;;;;0.73;0.73;;;;;;;;;;5094108;28;20196;-58
2022/12/28 06:03:33;;;;;;;0.70;0.70;;;;;;;;;;5098697;28;20566;-58
2022/12/28 06:06:07;;;;;;;0.77;0.77;;;;;;;;;;5099102;28;20204;-59
2022/12/28 06:08:34;;;;;;;1.35;0.80;;;;;;;;;;5098738;28;20662;-59
2022/12/28 06:11:02;;;;;;;0.80;0.70;;;;;;;;;;5098831;28;20294;-58
2022/12/28 06:13:30;;;;;;;0.60;0.60;;;;;;;;;;5098388;28;20562;-58
2022/12/28 06:15:57;;;;;;;0.70;0.60;;;;;;;;;;5098658;28;20242;-58
2022/12/28 06:18:25;;;;;;;0.60;0.60;;;;;;;;;;5098549;28;20231;-58
2022/12/28 06:20:52;;;;;;;0.60;0.60;;;;;;;;;;5098486;28;20203;-58
2022/12/28 06:23:22;;;;;;;0.90;0.80;;;;;;;;;;5098299;28;20298;-58
2022/12/28 06:25:50;;;;;;;0.85;0.80;;;;;;;;;;5098451;28;20591;-58
2022/12/28 06:28:17;;;;;;;0.85;0.70;;;;;;;;;;5098903;28;20204;-58
2022/12/28 06:30:44;;;;;;;0.70;0.70;;;;;;;;;;5098080;28;20210;-58
2022/12/28 06:33:12;;;;;;;1.35;0.70;;;;;;;;;;5097335;28;20290;-58
2022/12/28 06:35:41;;;;;;;0.70;0.70;;;;;;;;;;5098435;28;20243;-58
2022/12/28 06:38:09;;;;;;;0.68;0.68;;;;;;;;;;5097524;28;20294;-58
2022/12/28 06:40:38;;;;;;;0.80;0.63;;;;;;;;;;5097643;28;20290;-59
2022/12/28 06:43:05;;;;;;;0.70;0.70;;;;;;;;;;5097986;28;20505;-58
2022/12/28 06:45:32;;;;;;;0.70;0.70;;;;;;;;;;5098017;28;20226;-58
2022/12/28 06:48:00;;;;;;;0.70;0.70;;;;;;;;;;5097779;28;20302;-59
2022/12/28 06:50:27;;;;;;;0.90;0.70;;;;;;;;;;5097394;28;20203;-58
2022/12/28 06:52:55;;;;;;;0.88;0.73;;;;;;;;;;5097386;28;20291;-58
2022/12/28 06:55:22;;;;;;;1.00;0.90;;;;;;;;;;5097859;28;20221;-59
2022/12/28 06:57:51;;;;;;;0.70;0.70;;;;;;;;;;5097701;28;20295;-59
2022/12/28 07:00:18;;;;;;;0.93;0.70;;;;;;;;;;5097299;28;20207;-59
2022/12/28 07:02:46;;;;;;;0.88;0.80;;;;;;;;;;5097197;28;20227;-59
2022/12/28 07:05:13;;;;;;;0.77;0.70;;;;;;;;;;5096875;28;20302;-59
2022/12/28 07:07:40;;;;;;;0.60;0.60;;;;;;;;;;5097261;28;20204;-59
2022/12/28 07:10:08;;;;;;;0.80;0.73;;;;;;;;;;5097289;28;20211;-58
2022/12/28 07:12:35;;;;;;;0.88;0.80;;;;;;;;;;5097086;28;20234;-58
2022/12/28 07:15:05;;;;;;;0.95;0.73;;;;;;;;;;5096815;28;20210;-59
2022/12/28 07:17:32;;;;;;;0.70;0.70;;;;;;;;;;5096764;28;20203;-59
2022/12/28 07:20:00;;;;;;;0.90;0.90;;;;;;;;;;5096444;28;20562;-59
2022/12/28 07:22:27;;;;;;;1.02;0.80;;;;;;;;;;5097054;28;20258;-58
2022/12/28 07:24:54;;;;;;;0.77;0.77;;;;;;;;;;5097453;28;20207;-58
2022/12/28 07:27:22;;;;;;;0.80;0.80;;;;;;;;;;5097290;28;20204;-59
2022/12/28 07:29:49;;;;;;;0.60;0.60;;;;;;;;;;5096817;28;20204;-58
2022/12/28 07:32:18;;;;;;;0.70;0.70;;;;;;;;;;5096983;28;20204;-58
2022/12/28 07:34:46;;;;;;;0.80;0.80;;;;;;;;;;5097097;28;20495;-58
2022/12/28 07:37:13;;;;;;;0.88;0.60;;;;;;;;;;5096485;28;20214;-58
2022/12/28 07:39:40;;;;;;;0.98;0.82;;;;;;;;;;5096317;28;20203;-58
2022/12/28 07:42:10;;;;;;;1.00;0.75;;;;;;;;;;5096266;28;20281;-58
2022/12/28 07:44:37;;;;;;;0.90;0.88;;;;;;;;;;5095734;28;20237;-58
2022/12/28 07:47:05;;;;;;;1.17;0.88;;;;;;;;;;5095679;28;20281;-58
2022/12/28 07:49:34;;;;;;;1.13;0.88;;;;;;;;;;5096133;28;20213;-58
2022/12/28 07:52:02;;;;;;;0.75;0.75;;;;;;;;;;5096761;28;20569;-58
2022/12/28 07:54:29;;;;;;;0.88;0.80;;;;;;;;;;5096855;28;20560;-58
2022/12/28 07:56:56;;;;;;;1.08;0.90;;;;;;;;;;5096585;28;20203;-58
2022/12/28 07:59:24;;;;;;;0.63;0.63;;;;;;;;;;5096584;28;20590;-58
2022/12/28 08:01:52;;;;;;;0.80;0.80;;;;;;;;;;5096439;28;20655;-58
2022/12/28 08:04:19;;;;;;;0.95;0.70;;;;;;;;;;5095984;28;20235;-58
2022/12/28 08:06:48;;;;;;;1.17;0.82;;;;;;;;;;5096471;28;20298;-58
2022/12/28 08:09:16;;;;;;;0.93;0.90;;;;;;;;;;5095758;28;20670;-58
2022/12/28 08:11:44;;;;;;;0.80;0.80;;;;;;;;;;5095287;28;20516;-58
2022/12/28 08:14:12;;;;;;;0.73;0.73;;;;;;;;;;5095896;28;20239;-58
2022/12/28 08:16:40;;;;;;;0.95;0.80;;;;;;;;;;5095741;28;20210;-58
2022/12/28 08:19:08;;;;;;;1.38;0.90;;;;;;;;;;5095533;28;20358;-58
2022/12/28 08:21:37;;;;;;;1.10;1.00;;;;;;;;;;5094830;28;20293;-58
2022/12/28 08:24:06;;;;;;;1.30;1.00;;;;;;;;;;5095349;28;20203;-58
2022/12/28 08:26:35;;;;;;;1.00;0.90;;;;;;;;;;5096463;28;20314;-58
2022/12/28 08:29:04;;;;;;;0.75;0.75;;;;;;;;;;5096168;28;20647;-58
2022/12/28 08:31:32;;;;;;;1.10;1.00;;;;;;;;;;5095920;28;20200;-58
2022/12/28 08:34:00;;;;;;;0.80;0.80;;;;;;;;;;5096226;28;20218;-58
2022/12/28 08:36:28;;;;;;;0.90;0.90;;;;;;;;;;5095667;28;20593;-58
2022/12/28 08:38:56;;;;;;;1.27;1.17;;;;;;;;;;5095743;28;20242;-58
2022/12/28 08:41:26;;;;;;;1.08;0.98;;;;;;;;;;5095313;28;20203;-58
2022/12/28 08:43:54;;;;;;;1.05;0.95;;;;;;;;;;5095048;28;20239;-58
2022/12/28 08:46:22;;;;;;;0.82;0.82;;;;;;;;;;5095267;28;20206;-58
2022/12/28 08:48:50;;;;;;;1.10;0.80;;;;;;;;;;5095346;28;20204;-58
2022/12/28 08:51:19;;;;;;;0.93;0.93;;;;;;;;;;5095600;28;20500;-58
2022/12/28 08:53:47;;;;;;;1.10;1.00;;;;;;;;;;5095278;28;20199;-59
2022/12/28 08:56:16;;;;;;;1.10;1.00;;;;;;;;;;5098905;28;20211;-58
2022/12/28 08:58:45;;;;;;;1.17;0.90;;;;;;;;;;5098886;28;20214;-58
2022/12/28 09:01:14;;;;;;;1.30;0.73;;;;;;;;;;5098810;28;20203;-58
2022/12/28 09:03:42;;;;;;;0.73;0.73;;;;;;;;;;5098365;28;20416;-58
2022/12/28 09:06:11;;;;;;;0.90;0.90;;;;;;;;;;5098751;28;20214;-59
2022/12/28 09:08:39;;;;;;;0.80;0.80;;;;;;;;;;5098306;28;20246;-59
2022/12/28 09:11:07;;;;;;;1.00;0.82;;;;;;;;;;5098771;28;20287;-58
2022/12/28 09:13:35;;;;;;;1.25;0.93;;;;;;;;;;5097976;28;20261;-58
2022/12/28 09:16:05;;;;;;;0.80;0.80;;;;;;;;;;5098699;28;20214;-58
2022/12/28 09:18:32;;;;;;;0.80;0.80;;;;;;;;;;5098909;28;20204;-58
2022/12/28 09:21:05;;;;;;;1.08;0.98;;;;;;;;;;5098649;28;20211;-58
2022/12/28 09:23:32;;;;;;;0.80;0.80;;;;;;;;;;5098593;28;20228;-58
2022/12/28 09:26:04;;;;;;;0.93;0.85;;;;;;;;;;5097880;28;20477;-58
2022/12/28 09:28:31;;;;;;;0.82;0.77;;;;;;;;;;5098059;28;20203;-58
2022/12/28 09:30:59;;;;;;;0.80;0.77;;;;;;;;;;5098829;28;20211;-58
2022/12/28 09:36:13;;;;;;;1.20;0.90;;;;;;;;;;5097698;28;20195;-58
2022/12/28 09:38:41;;;;;;;0.80;0.80;;;;;;;;;;5097947;28;20606;-59
2022/12/28 09:41:12;;;;;;;0.93;0.90;;;;;;;;;;5098226;28;20200;-58
2022/12/28 09:43:41;;;;;;;0.98;0.90;;;;;;;;;;5095520;28;20224;-59
2022/12/28 09:46:09;;;;;;;0.95;0.88;;;;;;;;;;5097911;28;20475;-58
2022/12/28 09:48:39;;;;;;;0.90;0.90;;;;;;;;;;5097102;28;20207;-58
2022/12/28 09:51:07;;;;;;;1.17;1.08;;;;;;;;;;5097809;28;20663;-59
2022/12/28 09:53:35;;;;;;;0.88;0.80;;;;;;;;;;5097476;28;20298;-58
2022/12/28 09:56:05;;;;;;;1.10;1.00;;;;;;;;;;5097288;28;20290;-58
2022/12/28 09:58:35;;;;;;;1.02;0.95;;;;;;;;;;5097103;28;20753;-58
2022/12/28 10:01:03;;;;;;;0.98;0.80;;;;;;;;;;5098005;28;20207;-58
2022/12/28 10:03:33;;;;;;;1.08;0.90;;;;;;;;;;5096972;28;20318;-58
2022/12/28 10:06:03;;;;;;;1.27;0.80;;;;;;;;;;5096147;28;20299;-58
2022/12/28 10:08:30;;;;;;;1.10;0.80;;;;;;;;;;5096843;28;20203;-58
2022/12/28 10:11:00;;;;;;;0.93;0.70;;;;;;;;;;5097196;28;20204;-58
2022/12/28 10:13:28;;;;;;;0.98;0.80;;;;;;;;;;5097207;28;20299;-58
2022/12/28 10:15:56;;;;;;;1.67;0.80;;;;;;;;;;5096179;28;20812;-58
2022/12/28 10:18:25;;;;;;;0.88;0.80;;;;;;;;;;5096257;28;20302;-58
2022/12/28 10:20:52;;;;;;;1.67;1.58;;;;;;;;;;5096263;28;20209;-58
2022/12/28 10:23:24;;;;;;;9.93;8.93;;;;;;;;;;5095996;28;20223;-58
2022/12/28 10:25:52;;;;;;;15.40;13.80;;;;;;;;;;5095777;28;20200;-58
2022/12/28 10:28:21;;;;;;;20.13;17.98;;;;;;;;;;5095530;28;20204;-58
2022/12/28 10:31:02;;;;;;;23.63;21.13;;;;;;;;;;5096274;28;20310;-58
2022/12/28 10:33:29;;;;;;;31.02;25.92;;;;;;;;;;5096112;28;20199;-58
2022/12/28 10:35:57;;;;;;;30.50;27.30;;;;;;;;;;5095867;28;20222;-58
2022/12/28 10:38:27;;;;;;;33.05;28.15;;;;;;;;;;5095720;28;20204;-58
2022/12/28 10:40:57;;;;;;;32.35;28.85;;;;;;;;;;5096937;28;20533;-58
2022/12/28 10:43:28;;;;;;;33.28;28.45;;;;;;;;;;5095570;28;20236;-58
2022/12/28 10:45:56;;;;;;;29.73;26.48;;;;;;;;;;5096568;28;20203;-58
2022/12/28 10:48:25;;;;;;;28.35;25.30;;;;;;;;;;5095933;28;20302;-58
2022/12/28 10:50:54;;;;;;;29.88;25.45;;;;;;;;;;5095461;28;20294;-58
2022/12/28 10:53:27;;;;;;;27.83;24.27;;;;;;;;;;5096292;28;20811;-58
2022/12/28 10:56:16;;;;;;;25.90;23.05;;;;;;;;;;5095851;28;20578;-58
2022/12/28 10:58:44;;;;;;;25.33;22.63;;;;;;;;;;5095503;28;20202;-58
2022/12/28 11:01:17;;;;;;;24.13;21.50;;;;;;;;;;5095926;28;20298;-58
2022/12/28 11:03:45;;;;;;;26.80;24.08;;;;;;;;;;5095453;28;20233;-58
2022/12/28 11:06:14;;;;;;;25.25;22.65;;;;;;;;;;5095493;28;20454;-58
2022/12/28 11:08:44;;;;;;;23.58;21.02;;;;;;;;;;5096481;28;20288;-58
2022/12/28 11:11:22;;;;;;;24.23;21.65;;;;;;;;;;5095853;28;20315;-58
2022/12/28 11:13:52;;;;;;;24.20;21.75;;;;;;;;;;5095898;28;20199;-58
2022/12/28 11:16:19;;;;;;;24.02;21.52;;;;;;;;;;5095794;28;20214;-58
2022/12/28 11:18:47;;;;;;;23.30;20.92;;;;;;;;;;5095812;28;20204;-58
2022/12/28 11:21:18;;;;;;;22.77;20.27;;;;;;;;;;5095972;28;20213;-58
2022/12/28 11:23:47;;;;;;;21.65;19.45;;;;;;;;;;5095280;28;20240;-58
2022/12/28 11:26:15;;;;;;;21.63;19.42;;;;;;;;;;5095321;28;20203;-58
2022/12/28 11:28:44;;;;;;;21.73;19.33;;;;;;;;;;5095154;28;20291;-58
2022/12/28 11:31:18;;;;;;;21.00;18.83;;;;;;;;;;5095572;28;20567;-58
2022/12/28 11:33:46;;;;;;;20.45;18.35;;;;;;;;;;5094706;28;20198;-58
2022/12/28 11:36:15;;;;;;;18.85;16.88;;;;;;;;;;5095721;28;20500;-58
2022/12/28 11:38:44;;;;;;;18.17;16.38;;;;;;;;;;5094658;28;20313;-58
2022/12/28 11:41:14;;;;;;;20.88;18.77;;;;;;;;;;5095138;28;20286;-59
2022/12/28 11:43:49;;;;;;;23.13;20.80;;;;;;;;;;5094558;28;20325;-58
2022/12/28 11:46:46;;;;;;;23.08;20.77;;;;;;;;;;5095542;28;20213;-59
2022/12/28 11:49:27;;;;;;;21.20;19.23;;;;;;;;;;5012783;28;20199;-58
2022/12/28 11:52:13;;;;;;;20.05;18.15;;;;;;;;;;5083088;28;20195;-58
2022/12/28 11:54:51;;;;;;;19.95;17.85;;;;;;;;;;5095309;28;20191;-58
2022/12/28 12:00:33;;;;;;;18.48;16.70;;;;;;;;;;5133792;27;20538;-58
2022/12/28 12:03:02;;;;;;;17.83;16.13;;;;;;;;;;5122243;27;20205;-58
2022/12/28 12:05:49;;;;;;;18.15;16.35;;;;;;;;;;5133493;27;20662;-58
2022/12/28 12:08:40;;;;;;;16.65;15.02;;;;;;;;;;5133419;27;20395;-58
2022/12/28 12:11:32;;;;;;;16.63;15.02;;;;;;;;;;5122166;27;20213;-58
2022/12/28 12:14:01;;;;;;;16.63;14.85;;;;;;;;;;5133219;27;20263;-58
2022/12/28 12:16:31;;;;;;;15.65;14.15;;;;;;;;;;5132691;27;20212;-59
2022/12/28 12:19:00;;;;;;;16.48;14.88;;;;;;;;;;5133217;27;20218;-58
2022/12/28 12:21:33;;;;;;;15.27;13.77;;;;;;;;;;5132759;27;20296;-58
2022/12/28 12:24:05;;;;;;;15.38;13.88;;;;;;;;;;5133676;27;20206;-58
2022/12/28 12:26:36;;;;;;;15.80;14.20;;;;;;;;;;5132208;27;20198;-58
2022/12/28 12:29:06;;;;;;;14.90;13.32;;;;;;;;;;5133039;27;20198;-58
2022/12/28 12:31:36;;;;;;;14.27;12.88;;;;;;;;;;5132385;27;20225;-59
2022/12/28 12:34:07;;;;;;;13.90;12.68;;;;;;;;;;5132539;27;20226;-58
2022/12/28 12:36:51;;;;;;;13.40;12.10;;;;;;;;;;5132169;27;20293;-58
2022/12/28 12:39:24;;;;;;;14.07;12.55;;;;;;;;;;5132497;27;20515;-58
2022/12/28 12:41:57;;;;;;;12.57;11.48;;;;;;;;;;5132279;27;20498;-58
2022/12/28 12:44:33;;;;;;;12.57;11.32;;;;;;;;;;5131854;27;20297;-59
2022/12/28 12:47:21;;;;;;;11.30;10.25;;;;;;;;;;5131836;27;20202;-59
2022/12/28 12:50:08;;;;;;;12.02;10.82;;;;;;;;;;5132313;27;20697;-59
2022/12/28 12:52:39;;;;;;;11.10;10.00;;;;;;;;;;5132852;27;20289;-58
2022/12/28 12:55:13;;;;;;;11.18;10.07;;;;;;;;;;5132220;27;20202;-58
2022/12/28 12:57:47;;;;;;;11.00;9.93;;;;;;;;;;5131677;27;20293;-58
2022/12/28 13:00:16;;;;;;;10.65;9.65;;;;;;;;;;5132305;27;20230;-58
2022/12/28 13:03:01;;;;;;;10.52;9.43;;;;;;;;;;5131967;27;20503;-59
2022/12/28 13:05:30;;;;;;;10.00;9.05;;;;;;;;;;5131828;27;20836;-58
2022/12/28 13:07:59;;;;;;;9.73;8.82;;;;;;;;;;5131447;27;20207;-59
2022/12/28 13:10:29;;;;;;;10.35;9.25;;;;;;;;;;5123651;27;20294;-58
2022/12/28 13:12:58;;;;;;;9.23;8.32;;;;;;;;;;5117521;27;20199;-58
2022/12/28 13:15:26;;;;;;;9.40;8.50;;;;;;;;;;5117031;28;20202;-58
2022/12/28 13:18:00;;;;;;;8.80;8.00;;;;;;;;;;5118136;28;20203;-58
2022/12/28 13:20:28;;;;;;;8.45;7.57;;;;;;;;;;5117353;28;20218;-58
2022/12/28 13:22:57;;;;;;;8.38;7.57;;;;;;;;;;5118050;28;20203;-58
2022/12/28 13:25:25;;;;;;;8.30;7.38;;;;;;;;;;5117315;28;20298;-58
2022/12/28 13:27:52;;;;;;;7.80;7.00;;;;;;;;;;5116845;28;20526;-58
2022/12/28 13:30:21;;;;;;;7.57;6.85;;;;;;;;;;5117210;28;20235;-58
2022/12/28 13:32:51;;;;;;;7.63;6.82;;;;;;;;;;5117472;28;20210;-58
2022/12/28 13:35:19;;;;;;;7.68;6.97;;;;;;;;;;5116996;28;20210;-58
2022/12/28 13:38:01;;;;;;;7.47;6.75;;;;;;;;;;5117611;28;20327;-58
2022/12/28 13:40:29;;;;;;;6.43;5.80;;;;;;;;;;5118054;28;20215;-59
2022/12/28 13:43:01;;;;;;;7.20;6.50;;;;;;;;;;5117322;28;20582;-58
2022/12/28 13:45:29;;;;;;;7.60;6.47;;;;;;;;;;5117327;28;20628;-58
2022/12/28 13:47:57;;;;;;;6.57;5.90;;;;;;;;;;5117176;28;20409;-59
2022/12/28 13:50:27;;;;;;;6.22;5.63;;;;;;;;;;5117503;28;20199;-60
2022/12/28 13:52:59;;;;;;;6.80;6.10;;;;;;;;;;5116826;28;20195;-59
2022/12/28 13:55:31;;;;;;;6.18;5.65;;;;;;;;;;5117438;28;20211;-59
2022/12/28 13:58:00;;;;;;;5.82;5.30;;;;;;;;;;5116903;28;20286;-59
2022/12/28 14:00:28;;;;;;;6.13;5.63;;;;;;;;;;5116324;28;20221;-60
2022/12/28 14:02:56;;;;;;;5.90;5.30;;;;;;;;;;5116487;28;20302;-59
2022/12/28 14:05:25;;;;;;;5.60;5.10;;;;;;;;;;5116689;28;20298;-60
2022/12/28 14:07:53;;;;;;;5.60;5.10;;;;;;;;;;5116299;28;20285;-61
2022/12/28 14:10:21;;;;;;;5.50;5.00;;;;;;;;;;5116708;28;20195;-59
2022/12/28 14:12:50;;;;;;;5.43;4.93;;;;;;;;;;5116346;28;20373;-59
2022/12/28 14:15:18;;;;;;;5.40;4.90;;;;;;;;;;5116365;28;20493;-59
2022/12/28 14:17:46;;;;;;;6.28;4.88;;;;;;;;;;5116667;28;20213;-59
2022/12/28 14:20:14;;;;;;;5.35;4.85;;;;;;;;;;5116067;28;20295;-59
2022/12/28 14:22:42;;;;;;;4.93;4.45;;;;;;;;;;5115442;28;20199;-59
2022/12/28 14:25:10;;;;;;;4.45;4.05;;;;;;;;;;5115858;28;20697;-59
2022/12/28 14:27:40;;;;;;;4.55;4.15;;;;;;;;;;5116271;28;20203;-59
2022/12/28 14:30:21;;;;;;;5.40;4.28;;;;;;;;;;5115367;28;20574;-60
2022/12/28 14:32:49;;;;;;;4.60;4.20;;;;;;;;;;5115449;28;20209;-59
2022/12/28 14:35:18;;;;;;;4.55;4.15;;;;;;;;;;5114233;27;20206;-59
2022/12/28 14:37:47;;;;;;;4.63;4.00;;;;;;;;;;5115534;28;20297;-59
2022/12/28 14:40:21;;;;;;;4.22;3.83;;;;;;;;;;5115373;28;20317;-59
2022/12/28 14:42:50;;;;;;;4.97;4.03;;;;;;;;;;5115334;27;20217;-60
2022/12/28 14:45:35;;;;;;;4.60;3.60;;;;;;;;;;5115694;28;20213;-59
2022/12/28 14:48:03;;;;;;;3.72;3.25;;;;;;;;;;5115480;28;20229;-59
2022/12/28 14:50:31;;;;;;;3.80;3.40;;;;;;;;;;5114629;28;20209;-59
2022/12/28 14:53:03;;;;;;;3.58;3.28;;;;;;;;;;5114952;28;20210;-59
2022/12/28 14:55:32;;;;;;;3.47;3.17;;;;;;;;;;5114833;28;20199;-59
2022/12/28 14:58:01;;;;;;;3.67;3.40;;;;;;;;;;5115061;28;20633;-59
2022/12/28 15:00:30;;;;;;;3.63;3.30;;;;;;;;;;5115013;28;20317;-59
2022/12/28 15:02:58;;;;;;;3.60;3.05;;;;;;;;;;5115323;28;20612;-59
2022/12/28 15:05:36;;;;;;;3.45;3.10;;;;;;;;;;5114157;28;20263;-59
2022/12/28 15:08:03;;;;;;;3.38;3.08;;;;;;;;;;5114945;28;20199;-59
2022/12/28 15:10:32;;;;;;;3.38;3.08;;;;;;;;;;5114669;28;20211;-59
2022/12/28 15:13:00;;;;;;;6.20;4.00;;;;;;;;;;5115254;28;20207;-59
2022/12/28 15:15:27;;;;;;;3.60;3.30;;;;;;;;;;5115560;28;20227;-59
2022/12/28 15:17:56;;;;;;;3.90;3.50;;;;;;;;;;5115292;28;20298;-59
2022/12/28 15:20:23;;;;;;;3.92;3.50;;;;;;;;;;5115661;28;20317;-59
2022/12/28 15:22:51;;;;;;;3.58;3.25;;;;;;;;;;5115658;28;20213;-59
2022/12/28 15:25:18;;;;;;;3.85;3.28;;;;;;;;;;5115353;28;20290;-59
2022/12/28 15:27:49;;;;;;;3.83;3.10;;;;;;;;;;5115577;28;20202;-59